createdAt,value
2018-04-17T00:01:24.755Z,59.37
2018-04-17T00:03:52.319Z,59.71
2018-04-17T00:06:20.766Z,60.70
2018-04-17T00:08:48.410Z,61.03
2018-04-17T00:11:16.091Z,60.38
2018-04-17T00:13:43.635Z,59.98
2018-04-17T00:16:11.174Z,59.75
2018-04-17T00:18:38.823Z,59.75
2018-04-17T00:21:06.395Z,59.75
2018-04-17T00:23:34.077Z,61.00
2018-04-17T00:26:01.529Z,61.43
2018-04-17T00:28:29.019Z,61.56
2018-04-17T00:30:56.489Z,61.52
2018-04-17T00:33:23.953Z,61.72
2018-04-17T00:35:51.390Z,62.35
2018-04-17T00:38:18.839Z,62.06
2018-04-17T00:40:46.520Z,61.72
2018-04-17T00:43:14.008Z,61.60
2018-04-17T00:45:41.460Z,61.54
2018-04-17T00:48:08.958Z,61.10
2018-04-17T00:50:36.766Z,60.95
2018-04-17T00:53:16.537Z,60.76
2018-04-17T00:55:44.026Z,60.97
2018-04-17T00:58:12.088Z,61.00
2018-04-17T01:00:39.604Z,61.57
2018-04-17T01:03:07.118Z,61.13
2018-04-17T01:05:34.771Z,61.08
2018-04-17T01:08:02.293Z,60.90
2018-04-17T01:10:30.125Z,60.86
2018-04-17T01:12:57.594Z,60.78
2018-04-17T01:15:25.059Z,60.71
2018-04-17T01:17:52.510Z,60.73
2018-04-17T01:20:19.948Z,60.59
2018-04-17T01:22:47.439Z,60.75
2018-04-17T01:25:14.864Z,60.86
2018-04-17T01:27:42.367Z,60.82
2018-04-17T01:30:09.844Z,60.66
2018-04-17T01:32:37.492Z,60.64
2018-04-17T01:35:04.929Z,60.69
2018-04-17T01:37:32.394Z,60.92
2018-04-17T01:39:59.871Z,61.11
2018-04-17T01:42:27.359Z,61.17
2018-04-17T01:44:54.814Z,61.05
2018-04-17T01:47:22.522Z,60.94
2018-04-17T01:49:50.307Z,60.90
2018-04-17T01:52:17.797Z,60.91
2018-04-17T01:54:45.251Z,60.87
2018-04-17T01:57:13.030Z,60.85
2018-04-17T01:59:40.611Z,61.03
2018-04-17T02:02:08.047Z,61.47
2018-04-17T02:04:35.507Z,61.28
2018-04-17T02:07:03.603Z,61.57
2018-04-17T02:09:31.065Z,61.67
2018-04-17T02:11:58.529Z,61.77
2018-04-17T02:14:26.003Z,61.77
2018-04-17T02:16:53.877Z,61.48
2018-04-17T02:19:22.146Z,61.77
2018-04-17T02:21:50.108Z,61.80
2018-04-17T02:24:17.616Z,61.98
2018-04-17T02:26:45.073Z,62.25
2018-04-17T02:29:12.545Z,61.99
2018-04-17T02:31:40.060Z,62.09
2018-04-17T02:34:07.558Z,62.20
2018-04-17T02:36:35.019Z,62.49
2018-04-17T02:39:02.452Z,62.46
2018-04-17T02:41:29.917Z,62.63
2018-04-17T02:43:57.453Z,62.39
2018-04-17T02:46:24.934Z,62.43
2018-04-17T02:48:52.378Z,62.48
2018-04-17T02:51:19.879Z,62.78
2018-04-17T02:53:47.339Z,62.75
2018-04-17T02:56:14.799Z,62.80
2018-04-17T02:58:42.245Z,63.39
2018-04-17T03:01:09.781Z,63.15
2018-04-17T03:03:37.249Z,63.13
2018-04-17T03:06:05.419Z,63.79
2018-04-17T03:08:32.928Z,63.78
2018-04-17T03:11:00.373Z,63.65
2018-04-17T03:13:27.838Z,63.64
2018-04-17T03:15:55.327Z,63.51
2018-04-17T03:18:23.687Z,63.96
2018-04-17T03:20:51.211Z,64.31
2018-04-17T03:23:22.659Z,64.30
2018-04-17T03:25:50.140Z,64.30
2018-04-17T03:28:17.609Z,64.27
2018-04-17T03:30:45.149Z,64.15
2018-04-17T03:33:12.607Z,64.44
2018-04-17T03:35:43.628Z,64.30
2018-04-17T03:38:11.115Z,64.54
2018-04-17T03:40:38.927Z,64.54
2018-04-17T03:43:06.519Z,64.47
2018-04-17T03:45:33.953Z,65.06
2018-04-17T03:48:01.470Z,65.11
2018-04-17T03:50:28.931Z,64.92
2018-04-17T03:52:56.392Z,65.08
2018-04-17T03:55:23.977Z,65.17
2018-04-17T03:57:51.471Z,65.23
2018-04-17T04:00:19.027Z,64.90
2018-04-17T04:02:46.551Z,65.00
2018-04-17T04:05:13.964Z,64.81
2018-04-17T04:07:41.559Z,65.13
2018-04-17T04:10:13.200Z,65.35
2018-04-17T04:12:40.654Z,65.42
2018-04-17T04:15:08.118Z,65.27
2018-04-17T04:17:47.332Z,65.21
2018-04-17T04:20:26.603Z,65.29
2018-04-17T04:23:05.817Z,65.16
2018-04-17T04:28:42.056Z,65.21
2018-04-17T04:31:09.590Z,65.01
2018-04-17T04:33:37.103Z,65.15
2018-04-17T04:36:04.561Z,64.86
2018-04-17T04:38:32.006Z,65.00
2018-04-17T04:41:00.279Z,65.02
2018-04-17T04:43:28.053Z,65.23
2018-04-17T04:45:55.512Z,65.10
2018-04-17T04:48:22.966Z,65.12
2018-04-17T04:50:50.459Z,65.08
2018-04-17T04:53:17.921Z,64.97
2018-04-17T04:55:45.660Z,64.81
2018-04-17T04:58:13.115Z,64.72
2018-04-17T05:00:41.321Z,64.50
2018-04-17T05:03:08.787Z,64.49
2018-04-17T05:05:36.220Z,64.70
2018-04-17T05:08:05.262Z,64.79
2018-04-17T05:10:33.256Z,64.55
2018-04-17T05:13:00.820Z,64.65
2018-04-17T05:15:28.264Z,64.85
2018-04-17T05:17:55.836Z,64.96
2018-04-17T05:20:23.396Z,64.87
2018-04-17T05:22:50.953Z,64.82
2018-04-17T05:25:19.009Z,64.35
2018-04-17T05:27:46.445Z,64.18
2018-04-17T05:30:13.897Z,64.79
2018-04-17T05:32:41.330Z,64.46
2018-04-17T05:35:12.042Z,64.24
2018-04-17T05:37:39.880Z,63.62
2018-04-17T05:40:07.367Z,59.09
2018-04-17T05:42:34.918Z,55.85
2018-04-17T05:45:02.381Z,52.86
2018-04-17T05:47:29.841Z,50.30
2018-04-17T05:49:57.674Z,47.70
2018-04-17T05:52:25.176Z,46.21
2018-04-17T05:54:52.597Z,44.50
2018-04-17T05:57:20.192Z,43.34
2018-04-17T05:59:47.672Z,42.08
2018-04-17T06:02:15.109Z,40.65
2018-04-17T06:04:42.570Z,39.85
2018-04-17T06:07:10.039Z,38.77
2018-04-17T06:09:38.108Z,37.46
2018-04-17T06:12:05.542Z,36.24
2018-04-17T06:14:33.070Z,35.53
2018-04-17T06:17:00.544Z,34.54
2018-04-17T06:19:28.492Z,33.68
2018-04-17T06:21:56.036Z,33.17
2018-04-17T06:24:23.523Z,32.72
2018-04-17T06:26:50.956Z,32.26
2018-04-17T06:29:19.353Z,32.10
2018-04-17T06:31:46.787Z,31.64
2018-04-17T06:34:14.243Z,32.16
2018-04-17T06:36:41.789Z,32.04
2018-04-17T06:39:09.313Z,31.26
2018-04-17T06:41:36.773Z,30.58
2018-04-17T06:44:04.220Z,29.75
2018-04-17T06:46:31.670Z,29.65
2018-04-17T06:48:59.175Z,32.03
2018-04-17T06:51:26.624Z,38.97
2018-04-17T06:53:54.070Z,43.24
2018-04-17T06:56:21.551Z,45.53
2018-04-17T06:58:49.075Z,48.71
2018-04-17T07:01:16.580Z,49.96
2018-04-17T07:03:44.047Z,50.79
2018-04-17T07:06:11.514Z,51.67
2018-04-17T07:08:38.968Z,51.97
2018-04-17T07:11:06.422Z,53.25
2018-04-17T07:13:33.855Z,52.84
2018-04-17T07:16:05.653Z,53.03
2018-04-17T07:18:33.578Z,53.40
2018-04-17T07:21:01.060Z,53.46
2018-04-17T07:23:28.537Z,52.87
2018-04-17T07:25:56.306Z,53.18
2018-04-17T07:28:23.823Z,52.22
2018-04-17T07:30:51.264Z,52.40
2018-04-17T07:33:18.737Z,52.46
2018-04-17T07:35:46.205Z,51.15
2018-04-17T07:38:13.669Z,51.68
2018-04-17T07:40:41.120Z,51.59
2018-04-17T07:43:08.594Z,50.65
2018-04-17T07:45:36.380Z,50.13
2018-04-17T07:48:22.644Z,49.10
2018-04-17T07:50:50.072Z,49.02
2018-04-17T07:53:17.879Z,47.86
2018-04-17T07:55:45.382Z,46.57
2018-04-17T07:58:12.805Z,46.21
2018-04-17T08:00:40.326Z,47.77
2018-04-17T08:03:07.764Z,47.58
2018-04-17T08:05:35.322Z,47.42
2018-04-17T08:08:03.610Z,47.40
2018-04-17T08:10:31.085Z,46.43
2018-04-17T08:12:58.543Z,46.88
2018-04-17T08:15:25.999Z,46.48
2018-04-17T08:17:53.449Z,45.95
2018-04-17T08:20:21.368Z,45.87
2018-04-17T08:22:49.227Z,46.04
2018-04-17T08:25:16.787Z,47.13
2018-04-17T08:27:45.080Z,45.69
2018-04-17T08:30:12.573Z,45.68
2018-04-17T08:32:40.030Z,45.31
2018-04-17T08:35:07.863Z,45.85
2018-04-17T08:37:35.297Z,45.16
2018-04-17T08:40:02.730Z,45.38
2018-04-17T08:42:30.227Z,46.25
2018-04-17T08:44:58.313Z,45.99
2018-04-17T08:47:25.773Z,45.31
2018-04-17T08:49:53.222Z,45.30
2018-04-17T08:52:20.760Z,45.16
2018-04-17T08:54:48.193Z,44.48
2018-04-17T08:57:15.657Z,43.98
2018-04-17T08:59:43.112Z,45.02
2018-04-17T09:02:10.589Z,44.98
2018-04-17T09:04:38.045Z,44.69
2018-04-17T09:07:05.511Z,44.22
2018-04-17T09:09:32.992Z,43.09
2018-04-17T09:12:00.495Z,42.94
2018-04-17T09:14:27.890Z,42.59
2018-04-17T09:16:55.344Z,42.50
2018-04-17T09:19:22.804Z,41.95
2018-04-17T09:21:50.322Z,42.64
2018-04-17T09:24:17.784Z,41.54
2018-04-17T09:26:45.240Z,42.28
2018-04-17T09:29:12.781Z,40.96
2018-04-17T09:31:41.020Z,41.62
2018-04-17T09:34:08.536Z,41.44
2018-04-17T09:36:36.130Z,41.39
2018-04-17T09:39:07.719Z,41.59
2018-04-17T09:41:35.216Z,40.70
2018-04-17T09:44:02.684Z,39.65
2018-04-17T09:46:30.374Z,39.25
2018-04-17T09:48:57.815Z,40.05
2018-04-17T09:51:25.264Z,39.47
2018-04-17T09:53:52.730Z,38.71
2018-04-17T09:56:20.256Z,39.25
2018-04-17T09:58:47.691Z,39.13
2018-04-17T10:01:21.563Z,39.09
2018-04-17T10:03:49.383Z,39.51
2018-04-17T10:06:16.864Z,39.33
2018-04-17T10:08:44.325Z,37.79
2018-04-17T10:11:11.798Z,39.21
2018-04-17T10:13:39.865Z,38.40
2018-04-17T10:16:07.375Z,37.82
2018-04-17T10:18:34.933Z,37.58
2018-04-17T10:21:02.515Z,38.05
2018-04-17T10:23:30.100Z,37.61
2018-04-17T10:25:57.529Z,37.88
2018-04-17T10:28:25.011Z,38.06
2018-04-17T10:30:52.487Z,36.60
2018-04-17T10:33:19.937Z,36.71
2018-04-17T10:35:47.388Z,36.55
2018-04-17T10:38:14.863Z,35.57
2018-04-17T10:40:42.385Z,35.91
2018-04-17T10:43:09.909Z,34.54
2018-04-17T10:45:37.348Z,35.69
2018-04-17T10:48:04.806Z,35.91
2018-04-17T10:50:32.273Z,35.49
2018-04-17T10:52:59.734Z,35.80
2018-04-17T10:55:27.192Z,35.12
2018-04-17T10:57:54.645Z,32.86
2018-04-17T11:00:22.107Z,34.49
2018-04-17T11:02:49.640Z,34.53
2018-04-17T11:05:17.110Z,33.41
2018-04-17T11:07:44.538Z,33.77
2018-04-17T11:10:12.267Z,32.44
2018-04-17T11:12:39.690Z,31.26
2018-04-17T11:15:07.203Z,32.09
2018-04-17T11:17:34.815Z,31.07
2018-04-17T11:20:02.285Z,30.05
2018-04-17T11:22:29.741Z,31.27
2018-04-17T11:24:57.235Z,31.58
2018-04-17T11:27:24.714Z,31.63
2018-04-17T11:29:52.173Z,30.03
2018-04-17T11:32:19.658Z,30.43
2018-04-17T11:34:47.119Z,29.37
2018-04-17T11:37:14.576Z,31.14
2018-04-17T11:39:42.046Z,29.24
2018-04-17T11:42:09.512Z,28.44
2018-04-17T11:44:36.955Z,28.79
2018-04-17T11:47:04.399Z,29.60
2018-04-17T11:49:31.845Z,28.41
2018-04-17T11:51:59.302Z,28.86
2018-04-17T11:54:26.785Z,27.13
2018-04-17T11:56:54.242Z,26.43
2018-04-17T11:59:21.672Z,25.98
2018-04-17T12:01:49.140Z,25.56
2018-04-17T12:04:16.617Z,25.39
2018-04-17T12:06:45.219Z,26.11
2018-04-17T12:09:12.643Z,26.21
2018-04-17T12:11:40.178Z,26.11
2018-04-17T12:14:08.090Z,25.63
2018-04-17T12:16:35.544Z,26.43
2018-04-17T12:19:03.064Z,26.97
2018-04-17T12:21:30.510Z,27.54
2018-04-17T12:23:57.979Z,26.72
2018-04-17T12:26:25.444Z,25.64
2018-04-17T12:28:53.596Z,25.29
2018-04-17T12:31:21.075Z,23.97
2018-04-17T12:33:48.602Z,22.27
2018-04-17T12:36:16.064Z,20.65
2018-04-17T12:38:43.615Z,19.54
2018-04-17T12:41:11.152Z,17.42
2018-04-17T12:43:38.738Z,17.03
2018-04-17T12:46:07.060Z,16.80
2018-04-17T12:48:35.120Z,16.64
2018-04-17T12:51:02.610Z,15.93
2018-04-17T12:53:30.083Z,17.10
2018-04-17T12:55:57.530Z,16.15
2018-04-17T12:58:25.030Z,14.42
2018-04-17T13:00:52.870Z,14.34
2018-04-17T13:03:20.421Z,15.12
2018-04-17T13:05:48.015Z,14.92
2018-04-17T13:08:15.541Z,15.90
2018-04-17T13:10:43.122Z,15.33
2018-04-17T13:13:10.751Z,15.10
2018-04-17T13:15:38.288Z,13.57
2018-04-17T13:18:06.409Z,13.65
2018-04-17T13:20:33.844Z,13.56
2018-04-17T13:23:01.296Z,14.50
2018-04-17T13:25:28.798Z,15.51
2018-04-17T13:27:56.251Z,15.66
2018-04-17T13:30:23.708Z,14.51
2018-04-17T13:32:51.243Z,14.53
2018-04-17T13:35:18.675Z,15.08
2018-04-17T13:37:46.597Z,14.64
2018-04-17T13:40:14.195Z,13.53
2018-04-17T13:42:41.675Z,14.38
2018-04-17T13:45:09.124Z,14.41
2018-04-17T13:47:37.184Z,14.62
2018-04-17T13:50:04.967Z,15.21
2018-04-17T13:52:32.428Z,16.67
2018-04-17T13:54:59.869Z,17.41
2018-04-17T13:57:27.348Z,16.28
2018-04-17T13:59:54.806Z,16.70
2018-04-17T14:02:22.248Z,16.54
2018-04-17T14:04:50.515Z,16.99
2018-04-17T14:07:17.943Z,17.55
2018-04-17T14:09:45.463Z,17.47
2018-04-17T14:12:12.899Z,16.76
2018-04-17T14:14:40.357Z,16.36
2018-04-17T14:17:07.801Z,16.41
2018-04-17T14:19:35.311Z,16.36
2018-04-17T14:22:02.753Z,16.05
2018-04-17T14:24:30.192Z,15.23
2018-04-17T14:26:57.660Z,15.80
2018-04-17T14:29:25.129Z,16.69
2018-04-17T14:31:52.559Z,16.15
2018-04-17T14:34:20.144Z,16.40
2018-04-17T14:36:47.617Z,16.41
2018-04-17T14:39:15.094Z,15.84
2018-04-17T14:41:43.224Z,15.79
2018-04-17T14:44:10.973Z,19.14
2018-04-17T14:46:39.015Z,19.20
2018-04-17T14:49:06.487Z,20.00
2018-04-17T14:51:33.929Z,20.08
2018-04-17T14:54:01.355Z,19.95
2018-04-17T14:56:29.080Z,19.03
2018-04-17T14:58:56.852Z,18.45
2018-04-17T15:01:24.367Z,18.50
2018-04-17T15:03:51.778Z,18.61
2018-04-17T15:06:19.248Z,17.24
2018-04-17T15:08:47.503Z,18.23
2018-04-17T15:11:15.779Z,18.26
2018-04-17T15:13:43.224Z,18.15
2018-04-17T15:16:11.421Z,18.58
2018-04-17T15:18:38.905Z,18.59
2018-04-17T15:21:06.579Z,18.31
2018-04-17T15:23:34.032Z,18.28
2018-04-17T15:26:01.670Z,18.53
2018-04-17T15:28:29.228Z,18.94
2018-04-17T15:30:56.682Z,20.15
2018-04-17T15:33:24.149Z,20.80
2018-04-17T15:35:51.662Z,21.03
2018-04-17T15:38:19.135Z,21.67
2018-04-17T15:40:46.612Z,21.45
2018-04-17T15:43:14.079Z,21.56
2018-04-17T15:45:41.866Z,22.24
2018-04-17T15:48:09.371Z,22.49
2018-04-17T15:50:36.897Z,21.69
2018-04-17T15:53:04.393Z,21.48
2018-04-17T15:55:32.320Z,22.12
2018-04-17T15:57:59.826Z,22.32
2018-04-17T16:00:27.311Z,23.17
2018-04-17T16:02:54.773Z,23.19
2018-04-17T16:05:22.241Z,23.32
2018-04-17T16:07:50.171Z,23.53
2018-04-17T16:10:18.571Z,23.97
2018-04-17T16:12:46.402Z,24.05
2018-04-17T16:15:13.890Z,24.12
2018-04-17T16:17:42.144Z,23.96
2018-04-17T16:20:09.625Z,24.35
2018-04-17T16:22:37.382Z,24.27
2018-04-17T16:25:04.947Z,24.47
2018-04-17T16:27:32.414Z,24.56
2018-04-17T16:29:59.890Z,24.74
2018-04-17T16:32:27.320Z,25.20
2018-04-17T16:34:55.163Z,25.45
2018-04-17T16:37:22.637Z,25.67
2018-04-17T16:39:50.134Z,25.36
2018-04-17T16:42:17.596Z,25.74
2018-04-17T16:44:45.292Z,26.12
2018-04-17T16:47:12.805Z,26.50
2018-04-17T16:49:40.335Z,26.37
2018-04-17T16:52:07.832Z,26.61
2018-04-17T16:54:35.889Z,26.82
2018-04-17T16:57:03.472Z,26.69
2018-04-17T16:59:31.063Z,26.49
2018-04-17T17:01:58.589Z,26.48
2018-04-17T17:04:26.196Z,26.61
2018-04-17T17:06:53.799Z,26.65
2018-04-17T17:09:22.264Z,26.58
2018-04-17T17:11:50.176Z,26.65
2018-04-17T17:14:18.396Z,25.60
2018-04-17T17:16:45.891Z,26.11
2018-04-17T17:19:13.729Z,25.87
2018-04-17T17:21:41.262Z,26.25
2018-04-17T17:24:08.947Z,26.70
2018-04-17T17:26:36.601Z,26.74
2018-04-17T17:29:04.075Z,26.60
2018-04-17T17:31:31.574Z,26.51
2018-04-17T17:33:59.904Z,26.90
2018-04-17T17:36:27.426Z,26.80
2018-04-17T17:38:55.516Z,27.49
2018-04-17T17:41:23.283Z,27.82
2018-04-17T17:43:50.816Z,27.89
2018-04-17T17:46:18.280Z,28.70
2018-04-17T17:48:45.765Z,29.07
2018-04-17T17:51:13.279Z,29.05
2018-04-17T17:53:40.806Z,29.16
2018-04-17T17:56:08.288Z,29.43
2018-04-17T17:58:35.750Z,29.66
2018-04-17T18:01:03.296Z,29.91
2018-04-17T18:03:30.791Z,29.98
2018-04-17T18:05:58.233Z,30.47
2018-04-17T18:08:26.709Z,30.26
2018-04-17T18:10:54.404Z,30.29
2018-04-17T18:13:21.988Z,30.58
2018-04-17T18:15:49.819Z,30.89
2018-04-17T18:18:18.483Z,31.02
2018-04-17T18:20:46.305Z,31.14
2018-04-17T18:23:16.357Z,31.20
2018-04-17T18:25:44.047Z,31.62
2018-04-17T18:28:11.581Z,32.24
2018-04-17T18:30:39.592Z,32.93
2018-04-17T18:33:07.089Z,33.43
2018-04-17T18:35:34.562Z,33.75
2018-04-17T18:38:02.902Z,33.83
2018-04-17T18:40:30.443Z,34.25
2018-04-17T18:42:58.823Z,34.67
2018-04-17T18:45:26.265Z,34.73
2018-04-17T18:47:53.939Z,35.02
2018-04-17T18:50:21.463Z,35.27
2018-04-17T18:52:49.004Z,35.66
2018-04-17T18:55:17.093Z,35.75
2018-04-17T18:57:44.546Z,36.02
2018-04-17T19:00:12.068Z,36.11
2018-04-17T19:02:39.654Z,36.27
2018-04-17T19:05:07.150Z,36.41
2018-04-17T19:07:35.023Z,36.68
2018-04-17T19:10:02.538Z,36.84
2018-04-17T19:12:29.963Z,37.10
2018-04-17T19:14:57.458Z,37.27
2018-04-17T19:17:25.041Z,37.47
2018-04-17T19:19:52.627Z,37.90
2018-04-17T19:22:20.183Z,38.05
2018-04-17T19:24:47.749Z,38.13
2018-04-17T19:27:15.612Z,38.48
2018-04-17T19:29:43.089Z,38.52
2018-04-17T19:32:10.940Z,38.78
2018-04-17T19:34:38.372Z,39.02
2018-04-17T19:37:05.893Z,39.07
2018-04-17T19:39:34.229Z,39.33
2018-04-17T19:42:01.875Z,39.72
2018-04-17T19:44:29.774Z,39.90
2018-04-17T19:46:57.457Z,40.03
2018-04-17T19:49:25.252Z,40.54
2018-04-17T19:51:52.800Z,40.64
2018-04-17T19:54:20.713Z,40.38
2018-04-17T19:56:49.486Z,40.34
2018-04-17T19:59:17.020Z,41.27
2018-04-17T20:01:44.834Z,40.99
2018-04-17T20:04:13.122Z,41.20
2018-04-17T20:06:40.581Z,41.71
2018-04-17T20:09:08.129Z,41.65
2018-04-17T20:11:35.596Z,41.47
2018-04-17T20:14:03.380Z,41.81
2018-04-17T20:16:31.509Z,41.62
2018-04-17T20:18:58.978Z,42.09
2018-04-17T20:21:26.543Z,42.29
2018-04-17T20:23:54.361Z,42.94
2018-04-17T20:26:22.309Z,43.33
2018-04-17T20:28:50.371Z,43.63
2018-04-17T20:31:18.643Z,43.82
2018-04-17T20:33:46.866Z,43.94
2018-04-17T20:36:15.218Z,43.61
2018-04-17T20:38:43.288Z,43.48
2018-04-17T20:41:11.121Z,43.67
2018-04-17T20:43:38.597Z,44.54
2018-04-17T20:46:06.167Z,43.80
2018-04-17T20:48:34.415Z,44.37
2018-04-17T20:51:01.938Z,44.75
2018-04-17T20:53:29.467Z,45.01
2018-04-17T20:55:56.979Z,44.87
2018-04-17T20:58:25.029Z,44.42
2018-04-17T21:00:52.879Z,44.41
2018-04-17T21:03:20.344Z,44.50
2018-04-17T21:05:47.877Z,44.71
2018-04-17T21:08:16.208Z,44.83
2018-04-17T21:10:43.877Z,45.17
2018-04-17T21:13:12.258Z,45.63
2018-04-17T21:15:40.362Z,46.35
2018-04-17T21:20:39.784Z,45.93
2018-04-17T21:23:09.187Z,46.12
2018-04-17T21:25:36.651Z,46.87
2018-04-17T21:28:04.116Z,46.36
2018-04-17T21:30:31.628Z,46.50
2018-04-17T21:32:59.805Z,46.45
2018-04-17T21:35:27.423Z,46.34
2018-04-17T21:37:55.633Z,46.37
2018-04-17T21:40:23.210Z,46.87
2018-04-17T21:42:50.899Z,46.97
2018-04-17T21:45:18.429Z,46.79
2018-04-17T21:47:46.306Z,46.78
2018-04-17T21:50:13.841Z,46.91
2018-04-17T21:52:41.415Z,47.05
2018-04-17T21:55:09.004Z,46.89
2018-04-17T21:57:36.771Z,47.12
2018-04-17T22:00:04.356Z,47.49
2018-04-17T22:02:31.884Z,47.42
2018-04-17T22:05:01.018Z,47.46
2018-04-17T22:07:28.507Z,47.71
2018-04-17T22:09:56.098Z,48.43
2018-04-17T22:12:23.837Z,48.78
2018-04-17T22:14:51.305Z,48.84
2018-04-17T22:17:18.856Z,48.77
2018-04-17T22:22:17.974Z,49.06
2018-04-17T22:24:45.431Z,49.13
2018-04-17T22:27:12.902Z,49.00
2018-04-17T22:29:40.535Z,48.95
2018-04-17T22:32:08.129Z,49.14
2018-04-17T22:34:35.944Z,49.61
2018-04-17T22:37:03.730Z,49.68
2018-04-17T22:39:31.578Z,49.74
2018-04-17T22:41:59.012Z,49.55
2018-04-17T22:44:26.489Z,49.62
2018-04-17T22:46:54.811Z,49.80
2018-04-17T22:49:23.175Z,49.83
2018-04-17T22:51:50.629Z,50.06
2018-04-17T22:54:18.134Z,50.14
2018-04-17T22:56:45.925Z,50.35
2018-04-17T22:59:13.417Z,50.33
2018-04-17T23:01:41.174Z,50.33
2018-04-17T23:04:08.612Z,50.35
2018-04-17T23:06:36.075Z,50.65
2018-04-17T23:09:04.295Z,50.64
2018-04-17T23:11:32.112Z,51.07
2018-04-17T23:13:59.873Z,51.38
2018-04-17T23:16:27.425Z,51.15
2018-04-17T23:18:54.880Z,51.15
2018-04-17T23:21:22.344Z,51.20
2018-04-17T23:23:50.018Z,51.17
2018-04-17T23:26:17.511Z,51.51
2018-04-17T23:28:44.990Z,51.41
2018-04-17T23:31:12.454Z,51.33
2018-04-17T23:33:40.552Z,51.52
2018-04-17T23:36:08.042Z,51.80
2018-04-17T23:38:35.570Z,51.54
2018-04-17T23:41:03.243Z,51.76
2018-04-17T23:43:30.759Z,51.95
2018-04-17T23:45:58.212Z,52.47
2018-04-17T23:48:25.690Z,52.59
2018-04-17T23:50:53.164Z,52.37
2018-04-17T23:53:20.656Z,52.44
2018-04-17T23:55:48.115Z,52.65
2018-04-17T23:58:16.147Z,53.17
